Hauptseite
METAR-TAF:

METAR-TAF

Flughäfen :

London Luton Airport

Luton, England

Breite: 51-52N, Länge: 000-22W, Höhe: 160 m

Beobachtung

Neuester Wetterbericht von vor 31 Minuten, um 13:20 UTC
Wind 7 kt aus West, variierte zwischen Südwest und West/Nordwest
Temperatur 21°C
Luftfeuchtigkeit 43%
Luftdruck 1015 hPa
Sichtweite 10 km oder mehr

METAR: EGGW 231320Z AUTO 26007KT 220V300 9999 NCD 21/08 Q1015

Zeit: 14:51 (13:51 UTC)

Prognose

Neuester Wetterbericht von vor 2 Stunden und 53 Minuten, um 10:58 UTC
Gültige Prognose vom 23 um 12 UTC bis 24 um 12 UTC
Wind 6 kt aus West
Sichtweite 10 km oder mehr
keine Wolken unter 1500 m und keine Kumulonimbus oder Gewitterwolken

TAF: EGGW 231058Z 2312/2412 28006KT CAVOK

Wetterbeobachtungen und Prognosen von mehr als 4000 Flughäfen (METAR und TAF Bericht).

Die verfügbaren Stationen werden durch gelbe und rote Markierungen auf der Karte dargestellt.

Führen Sie die Maus auf sie, um den Namen der Station zu sehen.

Darauf klicken, um die Beobachtung von Wetterbeobachtungen und Prognosen zu sehen.

Um die Karte zu ändern : klicken Sie auf den grünen Tasten mit einem schwarzen Kreuz Zum Vergrößern, auf den grünen Button mit einem Gedankenstrich zu verkleinern, oder auf die grünen Pfeile für benachbarte Karten.


METAR-TAF: